createdAt,value
2023-05-09T00:01:58.500Z,6.27
2023-05-09T00:04:44.892Z,5.93
2023-05-09T00:07:31.538Z,6.10
2023-05-09T00:10:19.432Z,6.60
2023-05-09T00:13:06.225Z,6.77
2023-05-09T00:15:54.100Z,6.63
2023-05-09T00:18:42.323Z,7.37
2023-05-09T00:21:29.289Z,7.50
2023-05-09T00:24:15.672Z,7.30
2023-05-09T00:27:03.219Z,7.33
2023-05-09T00:29:49.696Z,6.80
2023-05-09T00:32:37.078Z,7.47
2023-05-09T00:35:23.612Z,7.70
2023-05-09T00:38:10.478Z,7.30
2023-05-09T00:40:56.749Z,7.73
2023-05-09T00:43:44.413Z,7.57
2023-05-09T00:46:30.911Z,7.90
2023-05-09T00:49:17.470Z,7.53
2023-05-09T00:52:04.346Z,8.33
2023-05-09T00:54:50.971Z,8.50
2023-05-09T00:57:37.534Z,8.83
2023-05-09T01:00:25.443Z,8.83
2023-05-09T01:03:12.089Z,9.17
2023-05-09T01:06:04.032Z,8.40
2023-05-09T01:08:53.536Z,8.77
2023-05-09T01:11:43.354Z,9.10
2023-05-09T01:14:33.038Z,8.93
2023-05-09T01:17:27.741Z,9.30
2023-05-09T01:20:19.448Z,8.87
2023-05-09T01:23:13.496Z,8.63
2023-05-09T01:26:04.524Z,9.53
2023-05-09T01:29:07.474Z,9.27
2023-05-09T01:31:56.784Z,9.00
2023-05-09T01:34:44.571Z,10.53
2023-05-09T01:37:31.695Z,10.10
2023-05-09T01:40:20.239Z,11.63
2023-05-09T01:43:08.392Z,10.83
2023-05-09T01:45:54.958Z,9.57
2023-05-09T01:48:43.399Z,10.67
2023-05-09T01:51:31.695Z,11.37
2023-05-09T01:54:18.665Z,11.00
2023-05-09T01:57:05.409Z,10.63
2023-05-09T01:59:52.085Z,10.60
2023-05-09T02:02:38.921Z,9.90
2023-05-09T02:05:27.368Z,9.50
2023-05-09T02:08:15.049Z,9.03
2023-05-09T02:11:01.280Z,9.53
2023-05-09T02:13:47.384Z,9.10
2023-05-09T02:16:33.802Z,8.73
2023-05-09T02:19:20.286Z,8.23
2023-05-09T02:22:08.425Z,8.17
2023-05-09T02:24:55.181Z,7.60
2023-05-09T02:27:41.796Z,7.67
2023-05-09T02:30:30.047Z,6.50
2023-05-09T02:33:16.698Z,7.53
2023-05-09T02:36:03.108Z,7.00
2023-05-09T02:38:50.678Z,7.07
2023-05-09T02:41:37.006Z,7.03
2023-05-09T02:44:23.422Z,7.73
2023-05-09T02:47:09.652Z,6.27
2023-05-09T02:49:56.165Z,6.43
2023-05-09T02:52:42.838Z,6.87
2023-05-09T02:55:30.561Z,6.03
2023-05-09T02:58:16.971Z,6.87
2023-05-09T03:01:03.724Z,6.10
2023-05-09T03:03:50.014Z,6.67
2023-05-09T03:06:37.443Z,6.20
2023-05-09T03:09:23.872Z,6.60
2023-05-09T03:12:11.828Z,6.03
2023-05-09T03:14:58.531Z,6.83
2023-05-09T03:17:44.659Z,6.33
2023-05-09T03:20:31.112Z,6.60
2023-05-09T03:23:17.617Z,5.37
2023-05-09T03:26:03.998Z,6.20
2023-05-09T03:28:51.711Z,5.53
2023-05-09T03:31:38.196Z,8.70
2023-05-09T03:34:24.941Z,5.73
2023-05-09T03:37:11.035Z,5.20
2023-05-09T03:39:57.295Z,9.47
2023-05-09T03:42:43.575Z,7.33
2023-05-09T03:45:31.694Z,5.40
2023-05-09T03:48:18.471Z,6.70
2023-05-09T03:51:04.834Z,10.57
2023-05-09T03:53:51.941Z,7.77
2023-05-09T03:56:38.155Z,5.63
2023-05-09T03:59:24.972Z,5.50
2023-05-09T04:02:12.906Z,4.37
2023-05-09T04:04:59.538Z,6.03
2023-05-09T04:07:45.955Z,5.77
2023-05-09T04:10:32.757Z,5.43
2023-05-09T04:13:19.272Z,5.47
2023-05-09T04:16:05.972Z,6.03
2023-05-09T04:18:53.677Z,6.50
2023-05-09T04:21:40.033Z,6.43
2023-05-09T04:24:26.537Z,6.17
2023-05-09T04:27:12.875Z,6.43
2023-05-09T04:29:59.449Z,6.77
2023-05-09T04:32:46.782Z,6.97
2023-05-09T04:35:34.801Z,6.10
2023-05-09T04:38:21.390Z,5.43
2023-05-09T04:41:07.655Z,5.70
2023-05-09T04:43:54.409Z,6.27
2023-05-09T04:46:40.827Z,5.73
2023-05-09T04:49:27.472Z,6.07
2023-05-09T04:52:15.297Z,6.33
2023-05-09T04:55:01.696Z,5.83
2023-05-09T04:57:47.988Z,4.40
2023-05-09T05:00:34.539Z,4.73
2023-05-09T05:03:21.164Z,4.43
2023-05-09T05:06:07.715Z,4.57
2023-05-09T05:08:55.537Z,4.43
2023-05-09T05:11:50.113Z,4.80
2023-05-09T05:14:43.786Z,4.60
2023-05-09T05:17:30.393Z,4.73
2023-05-09T05:20:17.041Z,4.50
2023-05-09T05:23:03.582Z,4.43
2023-05-09T05:25:51.494Z,5.20
2023-05-09T05:28:37.872Z,4.80
2023-05-09T05:31:24.515Z,4.87
2023-05-09T05:34:11.304Z,5.13
2023-05-09T05:36:57.586Z,6.07
2023-05-09T05:39:43.911Z,6.07
2023-05-09T05:42:31.858Z,5.60
2023-05-09T05:45:18.136Z,5.23
2023-05-09T05:48:04.885Z,5.43
2023-05-09T05:50:51.800Z,7.00
2023-05-09T05:53:38.415Z,5.60
2023-05-09T05:56:24.655Z,5.83
2023-05-09T05:59:13.534Z,5.37
2023-05-09T06:02:00.369Z,5.30
2023-05-09T06:04:46.745Z,5.70
2023-05-09T06:07:33.420Z,6.50
2023-05-09T06:10:32.324Z,5.53
2023-05-09T06:13:18.584Z,5.97
2023-05-09T06:16:18.521Z,5.70
2023-05-09T06:19:05.883Z,5.93
2023-05-09T06:21:52.104Z,6.10
2023-05-09T06:24:38.499Z,6.27
2023-05-09T06:27:24.872Z,6.20
2023-05-09T06:30:24.643Z,5.97
2023-05-09T06:33:13.862Z,5.90
2023-05-09T06:36:00.483Z,6.87
2023-05-09T06:38:47.029Z,6.07
2023-05-09T06:41:33.333Z,6.70
2023-05-09T06:44:20.034Z,6.80
2023-05-09T06:47:06.635Z,7.47
2023-05-09T06:49:54.708Z,6.80
2023-05-09T06:52:40.908Z,6.67
2023-05-09T06:55:27.338Z,6.30
2023-05-09T06:58:13.813Z,7.07
2023-05-09T07:01:00.278Z,6.13
2023-05-09T07:03:47.597Z,7.47
2023-05-09T07:06:35.987Z,7.23
2023-05-09T07:09:23.817Z,7.60
2023-05-09T07:12:10.654Z,6.97
2023-05-09T07:14:57.178Z,7.33
2023-05-09T07:17:43.570Z,7.27
2023-05-09T07:20:29.987Z,7.50
2023-05-09T07:23:17.783Z,7.40
2023-05-09T07:26:03.936Z,7.83
2023-05-09T07:28:50.231Z,7.30
2023-05-09T07:31:37.430Z,6.97
2023-05-09T07:34:25.436Z,7.37
2023-05-09T07:37:13.696Z,8.03
2023-05-09T07:40:03.465Z,7.23
2023-05-09T07:42:51.687Z,7.23
2023-05-09T07:45:38.281Z,7.57
2023-05-09T07:48:24.867Z,7.93
2023-05-09T07:51:11.166Z,7.37
2023-05-09T07:53:57.551Z,7.37
2023-05-09T07:56:45.533Z,6.73
2023-05-09T07:59:31.666Z,7.63
2023-05-09T08:02:18.217Z,7.57
2023-05-09T08:05:04.575Z,9.47
2023-05-09T08:07:51.192Z,7.70
2023-05-09T08:10:37.644Z,7.90
2023-05-09T08:13:25.799Z,7.37
2023-05-09T08:16:12.469Z,8.33
2023-05-09T08:18:59.378Z,8.43
2023-05-09T08:21:46.057Z,9.00
2023-05-09T08:24:33.221Z,7.70
2023-05-09T08:27:19.458Z,7.43
2023-05-09T08:30:08.515Z,7.27
2023-05-09T08:32:54.732Z,7.83
2023-05-09T08:35:41.355Z,7.67
2023-05-09T08:38:28.600Z,7.47
2023-05-09T08:41:15.281Z,7.47
2023-05-09T08:44:01.531Z,7.67
2023-05-09T08:46:51.537Z,7.70
2023-05-09T08:49:38.225Z,7.57
2023-05-09T08:52:25.264Z,7.47
2023-05-09T08:55:12.775Z,7.63
2023-05-09T08:57:59.419Z,7.63
2023-05-09T09:00:46.451Z,8.77
2023-05-09T09:03:34.649Z,8.70
2023-05-09T09:06:22.589Z,9.57
2023-05-09T09:09:09.649Z,8.57
2023-05-09T09:11:56.991Z,7.77
2023-05-09T09:14:44.549Z,7.63
2023-05-09T09:17:31.740Z,7.40
2023-05-09T09:20:19.740Z,7.63
2023-05-09T09:23:10.446Z,7.87
2023-05-09T09:26:00.405Z,7.70
2023-05-09T09:28:46.613Z,7.33
2023-05-09T09:31:33.312Z,8.80
2023-05-09T09:34:22.250Z,7.20
2023-05-09T09:37:10.192Z,7.73
2023-05-09T09:39:56.930Z,7.23
2023-05-09T09:42:44.186Z,6.67
2023-05-09T09:46:23.654Z,7.57
2023-05-09T09:49:10.606Z,6.70
2023-05-09T09:51:57.932Z,7.73
2023-05-09T09:54:46.071Z,7.17
2023-05-09T09:57:36.252Z,7.57
2023-05-09T10:00:26.420Z,7.10
2023-05-09T10:03:16.181Z,7.37
2023-05-09T10:06:03.110Z,7.33
2023-05-09T10:08:49.880Z,7.33
2023-05-09T10:11:37.699Z,7.17
2023-05-09T10:14:24.847Z,7.90
2023-05-09T10:17:14.715Z,10.03
2023-05-09T10:20:04.372Z,8.60
2023-05-09T10:22:51.694Z,7.30
2023-05-09T10:25:40.723Z,7.30
2023-05-09T10:28:30.638Z,7.23
2023-05-09T10:31:19.971Z,8.13
2023-05-09T10:34:07.401Z,7.63
2023-05-09T10:36:54.785Z,7.37
2023-05-09T10:39:42.191Z,7.43
2023-05-09T10:42:28.646Z,8.70
2023-05-09T10:45:17.265Z,16.73
2023-05-09T10:48:05.200Z,7.40
2023-05-09T10:50:51.773Z,7.07
2023-05-09T10:53:45.336Z,8.30
2023-05-09T10:56:33.008Z,7.63
2023-05-09T10:59:35.784Z,7.43
2023-05-09T11:02:29.157Z,6.70
2023-05-09T11:05:16.267Z,7.20
2023-05-09T11:08:22.190Z,7.23
2023-05-09T11:11:08.616Z,7.87
2023-05-09T11:13:58.029Z,6.73
2023-05-09T11:16:58.342Z,7.50
2023-05-09T11:20:05.433Z,6.73
2023-05-09T11:22:54.416Z,6.77
2023-05-09T11:25:41.337Z,6.37
2023-05-09T11:28:29.333Z,7.47
2023-05-09T11:31:17.260Z,7.03
2023-05-09T11:34:06.419Z,6.67
2023-05-09T11:37:08.236Z,6.23
2023-05-09T11:39:58.871Z,7.20
2023-05-09T11:42:46.390Z,6.47
2023-05-09T11:45:34.004Z,7.00
2023-05-09T11:48:22.857Z,6.87
2023-05-09T11:51:09.142Z,6.23
2023-05-09T11:53:57.034Z,6.23
2023-05-09T11:56:43.498Z,6.57
2023-05-09T11:59:30.319Z,6.53
2023-05-09T12:02:17.124Z,5.77
2023-05-09T12:05:10.559Z,5.93
2023-05-09T12:07:56.969Z,6.63
2023-05-09T12:10:45.092Z,5.53
2023-05-09T12:13:31.401Z,5.43
2023-05-09T12:16:18.434Z,6.27
2023-05-09T12:19:05.723Z,6.33
2023-05-09T12:21:55.887Z,6.00
2023-05-09T12:24:42.336Z,6.57
2023-05-09T12:27:32.168Z,5.87
2023-05-09T12:30:18.794Z,5.63
2023-05-09T12:33:05.724Z,6.33
2023-05-09T12:36:03.261Z,6.00
2023-05-09T12:38:54.071Z,5.73
2023-05-09T12:41:53.568Z,5.80
2023-05-09T12:44:49.118Z,6.33
2023-05-09T12:47:35.782Z,6.60
2023-05-09T12:50:22.624Z,6.17
2023-05-09T12:53:08.747Z,6.33
2023-05-09T12:56:02.321Z,6.27
2023-05-09T12:58:49.631Z,6.13
2023-05-09T13:01:37.474Z,7.80
2023-05-09T13:04:24.322Z,6.70
2023-05-09T13:07:11.524Z,6.30
2023-05-09T13:09:58.259Z,6.73
2023-05-09T13:12:48.220Z,6.17
2023-05-09T13:15:35.005Z,5.77
2023-05-09T13:18:24.268Z,6.03
2023-05-09T13:21:10.778Z,6.67
2023-05-09T13:23:57.414Z,6.53
2023-05-09T13:26:43.746Z,5.80
2023-05-09T13:29:30.224Z,6.17
2023-05-09T13:32:16.398Z,6.53
2023-05-09T13:35:06.612Z,6.27
2023-05-09T13:37:53.019Z,5.50
2023-05-09T13:40:39.180Z,6.37
2023-05-09T13:43:25.422Z,5.97
2023-05-09T13:46:11.842Z,5.87
2023-05-09T13:48:58.170Z,5.80
2023-05-09T13:51:45.905Z,5.73
2023-05-09T13:54:35.106Z,6.07
2023-05-09T13:57:21.860Z,5.20
2023-05-09T14:00:08.993Z,6.10
2023-05-09T14:02:55.801Z,5.93
2023-05-09T14:05:42.654Z,5.23
2023-05-09T14:08:30.892Z,6.10
2023-05-09T14:11:18.229Z,5.60
2023-05-09T14:14:05.268Z,5.33
2023-05-09T14:16:52.250Z,5.50
2023-05-09T14:19:38.801Z,5.43
2023-05-09T14:22:46.771Z,5.63
2023-05-09T14:25:34.601Z,6.10
2023-05-09T14:28:20.969Z,5.70
2023-05-09T14:31:07.568Z,5.70
2023-05-09T14:33:53.925Z,5.73
2023-05-09T14:36:40.490Z,6.33
2023-05-09T14:39:26.665Z,5.73
2023-05-09T14:42:16.673Z,5.90
2023-05-09T14:45:02.890Z,6.27
2023-05-09T14:47:49.670Z,5.73
2023-05-09T14:50:36.190Z,6.27
2023-05-09T14:53:23.075Z,5.20
2023-05-09T14:56:11.523Z,5.87
2023-05-09T14:58:59.783Z,6.63
2023-05-09T15:01:46.633Z,7.63
2023-05-09T15:04:33.214Z,6.70
2023-05-09T15:07:19.728Z,6.47
2023-05-09T15:10:07.141Z,7.07
2023-05-09T15:12:53.324Z,6.90
2023-05-09T15:15:41.277Z,8.60
2023-05-09T15:18:28.825Z,6.70
2023-05-09T15:21:15.459Z,6.60
2023-05-09T15:24:02.252Z,7.47
2023-05-09T15:26:49.072Z,6.77
2023-05-09T15:29:35.519Z,7.33
2023-05-09T15:32:23.531Z,5.97
2023-05-09T15:35:10.319Z,5.70
2023-05-09T15:37:56.647Z,6.57
2023-05-09T15:40:43.506Z,6.63
2023-05-09T15:43:29.878Z,6.97
2023-05-09T15:46:17.117Z,6.57
2023-05-09T15:49:05.390Z,6.40
2023-05-09T15:51:51.743Z,6.13
2023-05-09T15:54:38.633Z,4.83
2023-05-09T15:57:25.205Z,5.60
2023-05-09T16:00:12.665Z,5.67
2023-05-09T16:02:59.436Z,7.27
2023-05-09T16:05:47.390Z,6.53
2023-05-09T16:08:33.622Z,6.03
2023-05-09T16:11:20.215Z,8.17
2023-05-09T16:14:09.319Z,7.23
2023-05-09T16:16:56.253Z,6.97
2023-05-09T16:19:43.027Z,7.17
2023-05-09T16:22:30.889Z,8.00
2023-05-09T16:25:17.377Z,6.30
2023-05-09T16:28:04.269Z,6.43
2023-05-09T16:30:51.295Z,6.00
2023-05-09T16:33:37.617Z,6.60
2023-05-09T16:36:25.295Z,6.90
2023-05-09T16:39:15.320Z,6.90
2023-05-09T16:42:01.443Z,7.07
2023-05-09T16:44:48.081Z,6.50
2023-05-09T16:47:34.328Z,8.70
2023-05-09T16:50:20.461Z,7.20
2023-05-09T16:53:06.715Z,8.83
2023-05-09T16:55:54.593Z,7.80
2023-05-09T16:58:41.888Z,7.07
2023-05-09T17:01:29.319Z,7.80
2023-05-09T17:04:15.949Z,7.47
2023-05-09T17:07:03.280Z,7.43
2023-05-09T17:09:49.819Z,10.10
2023-05-09T17:12:38.910Z,7.93
2023-05-09T17:15:25.559Z,6.87
2023-05-09T17:18:17.020Z,6.87
2023-05-09T17:21:06.669Z,7.00
2023-05-09T17:23:54.285Z,5.60
2023-05-09T17:26:40.670Z,5.37
2023-05-09T17:29:29.363Z,8.60
2023-05-09T17:32:16.286Z,7.10
2023-05-09T17:35:03.416Z,6.00
2023-05-09T17:37:49.859Z,5.10
2023-05-09T17:40:36.025Z,7.83
2023-05-09T17:43:24.200Z,5.47
2023-05-09T17:46:11.813Z,5.73
2023-05-09T17:48:58.418Z,5.57
2023-05-09T17:51:45.129Z,5.53
2023-05-09T17:54:32.981Z,5.80
2023-05-09T17:57:19.625Z,4.83
2023-05-09T18:00:11.945Z,5.93
2023-05-09T18:03:00.944Z,5.30
2023-05-09T18:05:47.668Z,6.07
2023-05-09T18:08:34.169Z,5.27
2023-05-09T18:11:20.606Z,5.83
2023-05-09T18:14:07.184Z,5.37
2023-05-09T18:16:53.613Z,5.50
2023-05-09T18:19:42.337Z,5.77
2023-05-09T18:22:28.777Z,6.27
2023-05-09T18:25:15.425Z,5.40
2023-05-09T18:28:01.852Z,5.30
2023-05-09T18:30:48.270Z,5.23
2023-05-09T18:33:36.841Z,5.57
2023-05-09T18:36:24.489Z,6.07
2023-05-09T18:39:11.756Z,6.40
2023-05-09T18:41:58.208Z,6.57
2023-05-09T18:44:44.738Z,6.00
2023-05-09T18:47:31.206Z,7.20
2023-05-09T18:50:18.578Z,11.90
2023-05-09T18:53:07.491Z,6.47
2023-05-09T18:55:54.264Z,5.20
2023-05-09T18:58:40.752Z,5.53
2023-05-09T19:01:27.398Z,6.23
2023-05-09T19:04:14.913Z,5.97
2023-05-09T19:07:01.469Z,6.57
2023-05-09T19:09:49.427Z,6.27
2023-05-09T19:12:36.491Z,5.43
2023-05-09T19:15:23.306Z,7.20
2023-05-09T19:18:09.755Z,6.87
2023-05-09T19:20:56.153Z,5.53
2023-05-09T19:23:42.824Z,5.33
2023-05-09T19:26:30.716Z,4.93
2023-05-09T19:29:17.141Z,5.47
2023-05-09T19:32:03.586Z,4.63
2023-05-09T19:34:50.402Z,4.90
2023-05-09T19:37:37.236Z,4.70
2023-05-09T19:40:23.815Z,5.67
2023-05-09T19:43:11.620Z,5.47
2023-05-09T19:45:58.530Z,4.27
2023-05-09T19:48:44.704Z,5.00
2023-05-09T19:51:31.303Z,4.90
2023-05-09T19:54:17.798Z,4.93
2023-05-09T19:57:06.505Z,4.93
2023-05-09T19:59:55.645Z,4.90
2023-05-09T20:02:42.262Z,5.33
2023-05-09T20:05:29.011Z,4.87
2023-05-09T20:08:15.687Z,5.27
2023-05-09T20:11:02.213Z,4.63
2023-05-09T20:13:48.459Z,4.80
2023-05-09T20:16:36.462Z,5.23
2023-05-09T20:19:22.922Z,4.90
2023-05-09T20:22:10.003Z,5.30
2023-05-09T20:24:56.587Z,5.63
2023-05-09T20:27:42.990Z,6.00
2023-05-09T20:30:29.770Z,6.07
2023-05-09T20:33:17.785Z,5.83
2023-05-09T20:36:04.991Z,5.17
2023-05-09T20:38:52.032Z,5.53
2023-05-09T20:41:38.759Z,6.90
2023-05-09T20:44:25.039Z,8.40
2023-05-09T20:47:11.746Z,7.07
2023-05-09T20:49:59.283Z,5.80
2023-05-09T20:52:45.702Z,5.73
2023-05-09T20:55:32.029Z,6.00
2023-05-09T20:58:18.839Z,5.27
2023-05-09T21:01:05.230Z,5.40
2023-05-09T21:03:51.903Z,4.70
2023-05-09T21:06:39.758Z,4.67
2023-05-09T21:09:26.099Z,6.70
2023-05-09T21:12:12.284Z,6.30
2023-05-09T21:14:58.709Z,5.53
2023-05-09T21:17:45.161Z,4.93
2023-05-09T21:20:31.836Z,5.37
2023-05-09T21:23:19.636Z,4.80
2023-05-09T21:26:05.924Z,4.50
2023-05-09T21:28:52.476Z,3.83
2023-05-09T21:31:39.153Z,4.07
2023-05-09T21:34:25.798Z,4.10
2023-05-09T21:37:12.077Z,4.27
2023-05-09T21:39:59.891Z,4.13
2023-05-09T21:42:48.033Z,4.17
2023-05-09T21:45:34.347Z,4.47
2023-05-09T21:48:20.730Z,4.27
2023-05-09T21:51:07.537Z,4.63
2023-05-09T21:53:54.053Z,3.93
2023-05-09T21:56:42.634Z,4.47
2023-05-09T21:59:29.056Z,4.13
2023-05-09T22:02:15.706Z,4.77
2023-05-09T22:05:02.028Z,4.33
2023-05-09T22:07:48.449Z,4.27
2023-05-09T22:10:34.512Z,4.23
2023-05-09T22:13:22.661Z,4.27
2023-05-09T22:16:09.212Z,4.70
2023-05-09T22:18:55.944Z,4.33
2023-05-09T22:21:42.224Z,3.90
2023-05-09T22:24:29.214Z,3.47
2023-05-09T22:27:15.526Z,4.10
2023-05-09T22:30:03.492Z,4.40
2023-05-09T22:32:49.946Z,3.67
2023-05-09T22:35:36.468Z,4.60
2023-05-09T22:38:22.787Z,4.70
2023-05-09T22:41:09.291Z,3.50
2023-05-09T22:43:55.989Z,4.00
2023-05-09T22:46:44.223Z,3.77
2023-05-09T22:49:30.645Z,3.93
2023-05-09T22:52:17.223Z,3.70
2023-05-09T22:55:04.456Z,3.23
2023-05-09T22:57:51.080Z,3.67
2023-05-09T23:00:37.302Z,3.23
2023-05-09T23:03:25.549Z,3.57
2023-05-09T23:06:12.063Z,3.60
2023-05-09T23:08:58.533Z,3.27
2023-05-09T23:11:45.015Z,3.20
2023-05-09T23:14:32.556Z,3.37
2023-05-09T23:17:18.545Z,2.63
2023-05-09T23:20:07.273Z,3.20
2023-05-09T23:22:53.715Z,3.13
2023-05-09T23:25:40.116Z,3.30
2023-05-09T23:28:26.582Z,3.03
2023-05-09T23:31:13.103Z,2.90
2023-05-09T23:34:00.157Z,3.20
2023-05-09T23:36:47.996Z,2.80
2023-05-09T23:39:34.545Z,2.90
2023-05-09T23:42:21.190Z,3.03
2023-05-09T23:45:07.779Z,3.23
2023-05-09T23:47:54.433Z,2.87
2023-05-09T23:50:40.779Z,3.00
2023-05-09T23:53:28.622Z,3.73
2023-05-09T23:56:15.171Z,3.37
2023-05-09T23:59:01.919Z,2.80
